^^
Saratoga-Weather Station Historical Data
Daily Summary for February 17, 2021 Units:  English    Metric   Both
Daily Weekly Monthly Yearly Custom
  High: Low: Average:
Temperature: 37.9 °F 27.5 °F 34 °F
Dew Point: 36.3 °F 26.6 °F 32.5 °F
Humidity: 97% 92% 95%
Wind Speed: 12.1mph 0mph 3.4mph
Wind Gust: 17mph - -
Wind- - West
Pressure: 30.3 in 30 in -
Precipitation: 0.76 in    
Historical Graphs
 
 
Tabular Data for February 17, 2021
Time Temperature Dew Point Pressure Wind Wind Speed Wind Gust Humidity Rainfall Rate (Hourly) solar
00:04 27.5 °F 26.6 °F 30.1 in Calm     96% 0 in 0 W/m2
00:09 27.5 °F 26.6 °F 30.1 in Calm     96% 0 in 0 W/m2
00:14 27.7 °F 26.6 °F 30.1 in Calm     96% 0 in 0 W/m2
00:19 27.7 °F 26.6 °F 30.1 in Calm     96% 0 in 0 W/m2
00:24 27.7 °F 26.6 °F 30.1 in Calm     96% 0 in 0 W/m2
00:29 27.7 °F 26.6 °F 30.1 in Calm     96% 0 in 0 W/m2
00:34 27.7 °F 26.6 °F 30 in Calm     96% 0 in 0 W/m2
00:39 27.7 °F 26.6 °F 30 in Calm     96% 0 in 0 W/m2
00:44 27.7 °F 26.6 °F 30 in Calm     96% 0 in 0 W/m2
00:49 27.7 °F 26.6 °F 30 in Calm     96% 0 in 0 W/m2
00:54 27.9 °F 26.8 °F 30 in Calm     96% 0 in 0 W/m2
00:59 27.9 °F 26.8 °F 30 in Calm     96% 0 in 0 W/m2
01:04 27.9 °F 26.8 °F 30 in Calm     96% 0 in 0 W/m2
01:09 27.9 °F 26.8 °F 30 in Calm     96% 0 in 0 W/m2
01:14 27.9 °F 26.8 °F 30 in Calm     96% 0 in 0 W/m2
01:19 28 °F 27 °F 30 in Calm     96% 0 in 0 W/m2
01:24 28 °F 27 °F 30 in Calm     96% 0 in 0 W/m2
01:29 28 °F 27 °F 30 in Calm     96% 0 in 0 W/m2
01:34 28 °F 27 °F 30 in Calm     96% 0 in 0 W/m2
01:39 28 °F 27 °F 30 in Calm     96% 0 in 0 W/m2
01:44 28 °F 27 °F 30 in Calm     96% 0 in 0 W/m2
01:49 28 °F 27 °F 30 in Calm     96% 0 in 0 W/m2
01:54 28 °F 27 °F 30 in Calm     96% 0 in 0 W/m2
01:59 27.9 °F 26.8 °F 30 in Calm     96% 0 in 0 W/m2
02:04 28 °F 27 °F 30 in Calm     96% 0 in 0 W/m2
02:09 28 °F 27 °F 30 in Calm     96% 0 in 0 W/m2
02:14 28 °F 27 °F 30 in Calm     96% 0 in 0 W/m2
02:19 28 °F 27 °F 30 in Calm     96% 0 in 0 W/m2
02:24 28 °F 27 °F 30 in Calm     96% 0 in 0 W/m2
02:29 28 °F 27 °F 30 in Calm     96% 0 in 0 W/m2
02:34 28 °F 27 °F 30 in Calm     96% 0 in 0 W/m2
02:39 28 °F 27 °F 30 in Calm     96% 0 in 0 W/m2
02:44 28 °F 27 °F 30 in Calm     96% 0 in 0 W/m2
02:49 28 °F 27 °F 30 in Calm     96% 0 in 0 W/m2
02:54 28 °F 27 °F 30 in Calm     96% 0 in 0 W/m2
02:59 28.2 °F 27.1 °F 30 in Calm     96% 0 in 0 W/m2
03:04 28.2 °F 27.1 °F 30 in Calm     96% 0 in 0 W/m2
03:09 28.2 °F 27.1 °F 30 in Calm     96% 0 in 0 W/m2
03:14 28.2 °F 27.1 °F 30 in Calm     96% 0 in 0 W/m2
03:19 28.2 °F 27.1 °F 30 in Calm     96% 0 in 0 W/m2
03:24 28.2 °F 27.1 °F 30 in Calm     96% 0 in 0 W/m2
03:29 28.2 °F 27.1 °F 30 in Calm     96% 0 in 0 W/m2
03:34 28.2 °F 27.1 °F 30 in Calm     96% 0 in 0 W/m2
03:39 28.2 °F 27.1 °F 30 in Calm     96% 0 in 0 W/m2
03:44 28.2 °F 27.1 °F 30 in Calm     96% 0 in 0 W/m2
03:49 28.2 °F 27.1 °F 30 in Calm     96% 0 in 0 W/m2
03:54 28.4 °F 27.3 °F 30 in Calm     96% 0 in 0 W/m2
03:59 28.4 °F 27.3 °F 30 in Calm     96% 0 in 0 W/m2
04:04 28.6 °F 27.5 °F 30 in Calm     96% 0 in 0 W/m2
04:09 28.6 °F 27.5 °F 30 in Calm     96% 0 in 0 W/m2
04:14 28.6 °F 27.5 °F 30 in Calm     96% 0 in 0 W/m2
04:19 28.6 °F 27.5 °F 30 in Calm     96% 0 in 0 W/m2
04:24 28.6 °F 27.5 °F 30 in Calm     96% 0 in 0 W/m2
04:29 28.6 °F 27.5 °F 30 in Calm     96% 0 in 0 W/m2
04:34 28.6 °F 27.5 °F 30 in Calm     96% 0 in 0 W/m2
04:39 28.8 °F 27.7 °F 30 in Calm     96% 0 in 0 W/m2
04:44 28.8 °F 27.7 °F 30 in Calm     96% 0 in 0 W/m2
04:49 28.8 °F 27.7 °F 30 in Calm     96% 0 in 0 W/m2
04:54 28.8 °F 27.7 °F 30 in Calm     96% 0 in 0 W/m2
04:59 28.8 °F 27.7 °F 30 in Calm     96% 0 in 0 W/m2
05:04 28.8 °F 27.7 °F 30 in Calm     96% 0 in 0 W/m2
05:09 28.9 °F 27.9 °F 30 in Calm     96% 0 in 0 W/m2
05:14 28.9 °F 27.9 °F 30 in Calm     96% 0 in 0 W/m2
05:19 28.9 °F 27.9 °F 30 in Calm     96% 0 in 0 W/m2
05:24 29.1 °F 28 °F 30 in Calm     96% 0 in 0 W/m2
05:29 29.1 °F 28 °F 30 in Calm     96% 0 in 0 W/m2
05:34 29.1 °F 28 °F 30 in Calm     96% 0 in 0 W/m2
05:39 29.1 °F 28 °F 30 in Calm     96% 0 in 0 W/m2
05:44 29.1 °F 28 °F 30 in Calm     96% 0 in 0 W/m2
05:49 29.1 °F 28 °F 30 in Calm     96% 0 in 0 W/m2
05:54 29.3 °F 28.2 °F 30 in Calm     96% 0 in 0 W/m2
05:59 29.7 °F 28.6 °F 30 in Calm     96% 0 in 0 W/m2
06:04 29.8 °F 29.1 °F 30 in Calm     97% 0 in 0 W/m2
06:09 29.8 °F 29.1 °F 30 in Calm     97% 0 in 0 W/m2
06:14 30.6 °F 29.8 °F 30 in Calm     97% 0 in 0 W/m2
06:19 30.9 °F 30.2 °F 30 in Calm     97% 0 in 0 W/m2
06:25 31.1 °F 30.4 °F 30 in Calm     97% 0 in 0 W/m2
06:30 31.3 °F 30.6 °F 30 in Calm     97% 0 in 0 W/m2
06:35 31.3 °F 30.6 °F 30 in Calm     97% 0 in 0 W/m2
06:40 31.5 °F 30.7 °F 30 in Calm     97% 0 in 0 W/m2
06:45 31.5 °F 30.7 °F 30 in Calm     97% 0 in 0 W/m2
06:50 31.3 °F 30.6 °F 30 in Calm     97% 0 in 0 W/m2
06:55 31.5 °F 30.4 °F 30 in Calm     96% 0 in 0 W/m2
07:00 31.5 °F 30.7 °F 30 in Calm     97% 0 in 0 W/m2
07:05 31.5 °F 30.7 °F 30 in Calm     97% 0 in 0 W/m2
07:10 31.5 °F 30.7 °F 30 in Calm     97% 0 in 0 W/m2
07:15 31.5 °F 30.7 °F 30 in Calm     97% 0 in 0 W/m2
07:20 31.5 °F 30.7 °F 30 in Calm     97% 0 in 0 W/m2
07:25 31.5 °F 30.7 °F 30 in Calm     97% 0 in 0 W/m2
07:30 31.6 °F 30.9 °F 30 in Calm     97% 0 in 0 W/m2
07:35 31.6 °F 30.9 °F 30 in Calm     97% 0 in 0 W/m2
07:40 31.5 °F 30.7 °F 30 in Calm     97% 0 in 0 W/m2
07:45 31.5 °F 30.7 °F 30 in Calm     97% 0 in 0 W/m2
07:50 31.5 °F 30.4 °F 30 in Calm     96% 0 in 0 W/m2
07:55 31.5 °F 30.7 °F 30 in Calm     97% 0 in 0 W/m2
08:00 31.5 °F 30.7 °F 30 in Calm     97% 0 in 0 W/m2
08:05 31.6 °F 30.9 °F 30 in Calm     97% 0 in 0 W/m2
08:10 31.8 °F 31.1 °F 30 in Calm     97% 0 in 0 W/m2
08:15 31.8 °F 31.1 °F 30 in Calm     97% 0 in 0 W/m2
08:20 32 °F 31.3 °F 30.1 in Calm     97% 0 in 0 W/m2
08:25 32.2 °F 31.5 °F 30 in Calm     97% 0 in 0 W/m2
08:30 32.4 °F 31.6 °F 30.1 in Calm   1 mph 97% 0 in 0 W/m2
08:35 32.5 °F 31.8 °F 30.1 in Calm     97% 0 in 0 W/m2
08:40 32.7 °F 32 °F 30.1 in ENE 1 mph 1 mph 97% 0 in 0 W/m2
08:45 33.1 °F 32.4 °F 30 in SW 2 mph 3 mph 97% 0 in 0 W/m2
08:50 33.3 °F 32.5 °F 30 in NNW 0.9 mph 2 mph 97% 0 in 0 W/m2
08:55 33.4 °F 32.7 °F 30.1 in NW 2.9 mph 4 mph 97% 0 in 0 W/m2
09:00 33.4 °F 32.7 °F 30.1 in Calm   3 mph 97% 0 in 0 W/m2
09:05 33.4 °F 32.7 °F 30.1 in WNW 0.9 mph 3 mph 97% 0 in 0 W/m2
09:10 33.6 °F 32.9 °F 30.1 in WSW 2.9 mph 9 mph 97% 0 in 0 W/m2
09:15 33.8 °F 33.1 °F 30.1 in WNW 2 mph 4 mph 97% 0 in 0 W/m2
09:20 34 °F 33.3 °F 30.1 in West 2 mph 9 mph 97% 0 in 0 W/m2
09:25 34 °F 33.3 °F 30.1 in WNW 0.9 mph 3 mph 97% 0 in 0 W/m2
09:30 34 °F 32.9 °F 30.1 in WNW 4.9 mph 7 mph 96% 0 in 0 W/m2
09:35 34.2 °F 33.1 °F 30.1 in WNW 6.9 mph 9 mph 96% 0 in 0 W/m2
09:40 34.3 °F 33.6 °F 30.1 in NW 2 mph 7 mph 97% 0 in 0 W/m2
09:45 34.3 °F 33.3 °F 30.1 in NW 2 mph 9 mph 96% 0 in 0 W/m2
09:50 34.3 °F 33.3 °F 30.1 in NW 0.9 mph 8 mph 96% 0 in 0 W/m2
09:55 34.3 °F 33.3 °F 30.1 in West 6 mph 12 mph 96% 0 in 5 W/m2
10:00 34.5 °F 33.4 °F 30.1 in WNW 2 mph 5 mph 96% 0 in 7 W/m2
10:05 34.7 °F 33.6 °F 30.1 in WNW 4 mph 9 mph 96% 0 in 7 W/m2
10:10 34.7 °F 33.6 °F 30.1 in WNW 6 mph 9 mph 96% 0 in 9 W/m2
10:15 34.7 °F 33.6 °F 30.1 in SW 2.9 mph 5 mph 96% 0 in 7 W/m2
10:20 34.9 °F 33.8 °F 30.1 in WNW 4 mph 7 mph 96% 0 in 7 W/m2
10:25 34.9 °F 33.8 °F 30.1 in West 2.9 mph 7 mph 96% 0 in 7 W/m2
10:30 34.9 °F 33.8 °F 30.1 in West 2 mph 4 mph 96% 0 in 9 W/m2
10:35 34.9 °F 33.8 °F 30.1 in WSW 9 mph 9 mph 96% 0 in 12 W/m2
10:40 35.1 °F 34 °F 30.1 in WNW 6.9 mph 8 mph 96% 0 in 12 W/m2
10:52 35.2 °F 34 °F 30.1 in West 2 mph 8 mph 95% 0 in 11 W/m2
10:57 35.2 °F 34 °F 30.1 in NW 4.9 mph 9 mph 95% 0 in 9 W/m2
11:02 35.4 °F 34.3 °F 30.1 in WNW 2.9 mph 4 mph 96% 0 in 12 W/m2
11:07 35.4 °F 34.3 °F 30.1 in WSW 2 mph 8 mph 96% 0 in 11 W/m2
11:12 35.4 °F 34.2 °F 30.1 in West 4 mph 6 mph 95% 0 in 12 W/m2
11:17 35.6 °F 34.3 °F 30.1 in West 0.9 mph 4 mph 95% 0 in 12 W/m2
11:22 35.6 °F 34.3 °F 30.1 in WNW 2 mph 6 mph 95% 0 in 14 W/m2
11:27 35.8 °F 34.5 °F 30.1 in Calm   6 mph 95% 0 in 12 W/m2
11:32 36 °F 34.7 °F 30.1 in West 0.9 mph 3 mph 95% 0.01 in 14 W/m2
11:37 36 °F 34.7 °F 30.1 in WSW 2 mph 4 mph 95% 0.01 in 12 W/m2
11:42 36.1 °F 34.9 °F 30.1 in WNW 2 mph 4 mph 95% 0.01 in 12 W/m2
11:47 36.1 °F 34.9 °F 30.1 in West 0.9 mph 2 mph 95% 0.02 in 11 W/m2
11:52 36.1 °F 34.9 °F 30.1 in WNW 2 mph 2 mph 95% 0.02 in 9 W/m2
11:57 36.1 °F 34.9 °F 30.1 in West 2.9 mph 7 mph 95% 0.02 in 7 W/m2
12:02 36 °F 34.7 °F 30.1 in SW 2.9 mph 7 mph 95% 0.02 in 7 W/m2
12:07 35.8 °F 34.5 °F 30.1 in WSW 2 mph 7 mph 95% 0.02 in 7 W/m2
12:12 35.8 °F 34.5 °F 30.1 in West 2 mph 4 mph 95% 0.02 in 7 W/m2
12:17 35.8 °F 34.5 °F 30.1 in WNW 2.9 mph 4 mph 95% 0.02 in 9 W/m2
12:22 35.8 °F 34.5 °F 30.1 in SW 2.9 mph 7 mph 95% 0.02 in 11 W/m2
12:27 35.8 °F 34.5 °F 30.1 in WNW 2.9 mph 7 mph 95% 0.02 in 11 W/m2
12:32 36 °F 34.7 °F 30.1 in WNW 2.9 mph 8 mph 95% 0.02 in 14 W/m2
12:37 36 °F 34.7 °F 30.1 in West 4 mph 8 mph 95% 0.02 in 16 W/m2
12:42 36.1 °F 35.1 °F 30.1 in West 2 mph 5 mph 96% 0.02 in 19 W/m2
12:47 36.1 °F 34.9 °F 30.1 in WNW 4 mph 8 mph 95% 0.01 in 21 W/m2
12:52 36.3 °F 35.1 °F 30.1 in West 6 mph 10 mph 95% 0.01 in 25 W/m2
13:02 36.7 °F 35.4 °F 30.1 in West 6.9 mph 9 mph 95% 0 in 40 W/m2
13:07 36.7 °F 35.4 °F 30.1 in West 6.9 mph 9 mph 95% 0.01 in 56 W/m2
13:12 36.7 °F 35.4 °F 30.1 in West 6 mph 8 mph 95% 0.02 in 76 W/m2
13:17 37 °F 35.8 °F 30.1 in WNW 2.9 mph 9 mph 95% 0.05 in 58 W/m2
13:22 37 °F 35.8 °F 30.1 in WSW 8.1 mph 9 mph 95% 0.06 in 54 W/m2
13:27 37 °F 35.8 °F 30.1 in West 4 mph 8 mph 95% 0.08 in 67 W/m2
13:32 37.2 °F 36 °F 30.1 in WNW 6.9 mph 10 mph 95% 0.09 in 123 W/m2
13:37 37.4 °F 36.1 °F 30.1 in WNW 2.9 mph 9 mph 95% 0.11 in 98 W/m2
13:42 37.6 °F 36 °F 30.1 in West 6 mph 8 mph 94% 0.13 in 77 W/m2
13:47 37.6 °F 36 °F 30.1 in West 2 mph 10 mph 94% 0.14 in 120 W/m2
13:52 37.6 °F 36 °F 30.1 in West 6 mph 11 mph 94% 0.16 in 135 W/m2
13:57 37.6 °F 36 °F 30.1 in WSW 4 mph 4 mph 94% 0.17 in 93 W/m2
14:02 37.6 °F 36 °F 30.1 in WNW 4 mph 11 mph 94% 0.19 in 84 W/m2
14:07 37.6 °F 36 °F 30.1 in NW 8.1 mph 10 mph 94% 0.19 in 105 W/m2
14:12 37.6 °F 36 °F 30.1 in WSW 10.1 mph 10 mph 94% 0.19 in 104 W/m2
14:22 37.6 °F 36 °F 30.1 in WSW 2.9 mph 11 mph 94% 0.17 in 105 W/m2
14:27 37.8 °F 36.1 °F 30.1 in NW 4 mph 10 mph 94% 0.17 in 146 W/m2
14:32 37.8 °F 36.1 °F 30.1 in WNW 4 mph 9 mph 94% 0.17 in 102 W/m2
14:37 37.8 °F 36.1 °F 30.1 in SSW 4 mph 9 mph 94% 0.17 in 102 W/m2
14:42 37.8 °F 36.1 °F 30.1 in West 6.9 mph 9 mph 94% 0.17 in 84 W/m2
14:47 37.9 °F 36.3 °F 30.1 in West 6 mph 10 mph 94% 0.16 in 69 W/m2
14:52 37.8 °F 36.1 °F 30.1 in West 6.9 mph 8 mph 94% 0.15 in 70 W/m2
14:57 37.8 °F 36.1 °F 30.1 in SW 2.9 mph 7 mph 94% 0.15 in 81 W/m2
15:02 37.8 °F 36.1 °F 30.1 in West 6.9 mph 9 mph 94% 0.14 in 69 W/m2
15:07 37.8 °F 36.1 °F 30.1 in WSW 8.9 mph 9 mph 94% 0.14 in 72 W/m2
15:12 37.8 °F 36.1 °F 30.1 in West 6 mph 15 mph 94% 0.14 in 42 W/m2
15:17 37.8 °F 36 °F 30.1 in West 8.9 mph 13 mph 93% 0.13 in 35 W/m2
15:22 37.6 °F 35.8 °F 30.2 in WNW 4.9 mph 11 mph 93% 0.13 in 37 W/m2
15:27 37.8 °F 36.1 °F 30.2 in WSW 10.1 mph 13 mph 94% 0.13 in 39 W/m2
15:32 37.8 °F 36 °F 30.2 in WNW 8.9 mph 12 mph 93% 0.12 in 28 W/m2
15:37 37.8 °F 36 °F 30.2 in WNW 4.9 mph 9 mph 93% 0.12 in 28 W/m2
15:42 37.8 °F 36 °F 30.2 in West 6.9 mph 12 mph 93% 0.11 in 30 W/m2
15:47 37.8 °F 36 °F 30.2 in WNW 4 mph 10 mph 93% 0.1 in 26 W/m2
15:52 37.8 °F 36 °F 30.2 in West 4 mph 10 mph 93% 0.1 in 26 W/m2
15:57 37.8 °F 36 °F 30.2 in West 8.1 mph 10 mph 93% 0.09 in 26 W/m2
16:02 37.8 °F 36 °F 30.2 in West 6.9 mph 8 mph 93% 0.09 in 26 W/m2
16:07 37.8 °F 36 °F 30.2 in West 4 mph 14 mph 93% 0.09 in 28 W/m2
16:12 37.6 °F 35.8 °F 30.2 in WNW 10.1 mph 12 mph 93% 0.08 in 26 W/m2
16:17 37.6 °F 35.8 °F 30.2 in West 8.1 mph 14 mph 93% 0.08 in 23 W/m2
16:22 37.8 °F 36 °F 30.2 in West 10.1 mph 10 mph 93% 0.08 in 21 W/m2
16:27 37.8 °F 36 °F 30.2 in WNW 8.1 mph 12 mph 93% 0.07 in 18 W/m2
16:32 37.8 °F 36 °F 30.2 in West 6 mph 10 mph 93% 0.07 in 12 W/m2
16:37 37.8 °F 36 °F 30.2 in West 6.9 mph 12 mph 93% 0.07 in 9 W/m2
16:42 37.8 °F 35.6 °F 30.2 in West 6 mph 8 mph 92% 0.07 in 9 W/m2
16:47 37.9 °F 36.1 °F 30.2 in West 6.9 mph 11 mph 93% 0.07 in 9 W/m2
16:52 37.9 °F 35.8 °F 30.2 in WSW 2.9 mph 6 mph 92% 0.07 in 7 W/m2
16:57 37.9 °F 35.8 °F 30.2 in WSW 6.9 mph 9 mph 92% 0.07 in 7 W/m2
17:02 37.8 °F 35.6 °F 30.2 in West 4 mph 8 mph 92% 0.06 in 5 W/m2
17:07 37.8 °F 35.6 °F 30.2 in West 4 mph 8 mph 92% 0.06 in 0 W/m2
17:12 37.8 °F 36 °F 30.2 in West 6.9 mph 10 mph 93% 0.06 in 0 W/m2
17:17 37.8 °F 36 °F 30.2 in West 6.9 mph 9 mph 93% 0.06 in 0 W/m2
17:22 37.8 °F 36 °F 30.2 in West 6.9 mph 10 mph 93% 0.06 in 0 W/m2
17:27 37.8 °F 36 °F 30.2 in NW 2.9 mph 11 mph 93% 0.06 in 0 W/m2
17:32 37.8 °F 36 °F 30.2 in NW 4.9 mph 10 mph 93% 0.06 in 0 W/m2
17:37 37.8 °F 36 °F 30.2 in WNW 4.9 mph 14 mph 93% 0.06 in 0 W/m2
17:42 37.8 °F 36 °F 30.2 in WSW 4.9 mph 11 mph 93% 0.06 in 0 W/m2
17:47 37.9 °F 36.1 °F 30.2 in West 8.1 mph 13 mph 93% 0.06 in 0 W/m2
17:52 37.9 °F 36.1 °F 30.2 in West 8.9 mph 11 mph 93% 0.06 in 0 W/m2
17:57 37.9 °F 36.1 °F 30.2 in WSW 4.9 mph 10 mph 93% 0.06 in 0 W/m2
18:02 37.9 °F 36.1 °F 30.2 in WNW 4 mph 9 mph 93% 0.07 in 0 W/m2
18:07 37.8 °F 36 °F 30.2 in West 8.1 mph 10 mph 93% 0.07 in 0 W/m2
18:12 37.8 °F 36 °F 30.2 in WNW 6.9 mph 10 mph 93% 0.07 in 0 W/m2
18:17 37.8 °F 36 °F 30.2 in West 10.1 mph 10 mph 93% 0.07 in 0 W/m2
18:22 37.8 °F 36 °F 30.2 in WNW 4.9 mph 8 mph 93% 0.06 in 0 W/m2
18:27 37.8 °F 36.1 °F 30.2 in WSW 4.9 mph 11 mph 94% 0.07 in 0 W/m2
18:32 37.8 °F 36 °F 30.2 in West 4 mph 10 mph 93% 0.07 in 0 W/m2
18:37 37.8 °F 36 °F 30.2 in WNW 6.9 mph 12 mph 93% 0.06 in 0 W/m2
18:42 37.8 °F 36 °F 30.2 in West 4 mph 8 mph 93% 0.06 in 0 W/m2
18:47 37.8 °F 36.1 °F 30.2 in West 6 mph 12 mph 94% 0.06 in 0 W/m2
18:52 37.8 °F 36 °F 30.2 in WNW 8.1 mph 13 mph 93% 0.06 in 0 W/m2
18:57 37.8 °F 36 °F 30.2 in West 4 mph 8 mph 93% 0.06 in 0 W/m2
19:02 37.6 °F 35.8 °F 30.2 in West 11 mph 11 mph 93% 0.06 in 0 W/m2
19:07 37.6 °F 36 °F 30.2 in WNW 6.9 mph 8 mph 94% 0.06 in 0 W/m2
19:12 37.6 °F 36 °F 30.2 in WNW 8.1 mph 9 mph 94% 0.06 in 0 W/m2
19:17 37.6 °F 36 °F 30.2 in WSW 2.9 mph 11 mph 94% 0.06 in 0 W/m2
19:22 37.4 °F 35.8 °F 30.2 in West 6 mph 14 mph 94% 0.05 in 0 W/m2
19:27 37.4 °F 35.8 °F 30.2 in WSW 4 mph 12 mph 94% 0.05 in 0 W/m2
19:32 37.2 °F 35.6 °F 30.2 in West 8.1 mph 11 mph 94% 0.05 in 0 W/m2
19:37 37.2 °F 35.6 °F 30.2 in West 6 mph 11 mph 94% 0.05 in 0 W/m2
19:42 37.2 °F 35.6 °F 30.2 in WSW 8.9 mph 10 mph 94% 0.05 in 0 W/m2
19:47 37.2 °F 35.6 °F 30.2 in WNW 6.9 mph 17 mph 94% 0.05 in 0 W/m2
19:52 37.2 °F 35.6 °F 30.2 in WNW 12.1 mph 12 mph 94% 0.05 in 0 W/m2
19:57 37 °F 35.4 °F 30.2 in SW 2.9 mph 17 mph 94% 0.04 in 0 W/m2
20:02 37 °F 35.4 °F 30.2 in West 6.9 mph 10 mph 94% 0.05 in 0 W/m2
20:07 37 °F 35.4 °F 30.2 in West 6 mph 12 mph 94% 0.04 in 0 W/m2
20:12 37 °F 35.4 °F 30.2 in WNW 10.1 mph 13 mph 94% 0.04 in 0 W/m2
20:17 36.9 °F 35.2 °F 30.2 in West 4 mph 13 mph 94% 0.04 in 0 W/m2
20:22 36.7 °F 35.1 °F 30.2 in WSW 8.9 mph 11 mph 94% 0.04 in 0 W/m2
20:27 36.7 °F 35.1 °F 30.2 in West 8.9 mph 10 mph 94% 0.04 in 0 W/m2
20:32 36.7 °F 35.1 °F 30.2 in West 8.9 mph 14 mph 94% 0.04 in 0 W/m2
20:38 36.7 °F 35.1 °F 30.3 in West 11 mph 15 mph 94% 0.04 in 0 W/m2
20:43 36.7 °F 35.1 °F 30.2 in West 6.9 mph 10 mph 94% 0.03 in 0 W/m2
20:48 36.7 °F 35.1 °F 30.2 in SW 4.9 mph 15 mph 94% 0.03 in 0 W/m2
20:53 36.9 °F 35.2 °F 30.2 in WNW 6 mph 12 mph 94% 0.03 in 0 W/m2
20:58 36.9 °F 35.2 °F 30.3 in West 8.1 mph 14 mph 94% 0.03 in 0 W/m2
21:03 36.9 °F 35.2 °F 30.3 in West 6.9 mph 13 mph 94% 0.02 in 0 W/m2
21:08 36.9 °F 35.2 °F 30.3 in West 8.1 mph 14 mph 94% 0.03 in 0 W/m2
21:13 36.9 °F 35.1 °F 30.3 in WNW 10.1 mph 13 mph 93% 0.03 in 0 W/m2
21:18 36.9 °F 35.1 °F 30.3 in WNW 6.9 mph 11 mph 93% 0.03 in 0 W/m2
21:23 36.9 °F 35.1 °F 30.3 in WNW 6 mph 11 mph 93% 0.03 in 0 W/m2
21:28 36.9 °F 35.2 °F 30.3 in WNW 6.9 mph 10 mph 94% 0.03 in 0 W/m2
21:33 36.7 °F 35.1 °F 30.3 in WNW 4.9 mph 10 mph 94% 0.02 in 0 W/m2
21:38 36.7 °F 35.1 °F 30.3 in WSW 6.9 mph 9 mph 94% 0.03 in 0 W/m2
21:43 36.7 °F 35.1 °F 30.3 in West 11 mph 12 mph 94% 0.03 in 0 W/m2
21:48 36.7 °F 35.1 °F 30.3 in WNW 6.9 mph 10 mph 94% 0.03 in 0 W/m2
21:53 36.7 °F 35.1 °F 30.3 in WNW 4 mph 12 mph 94% 0.02 in 0 W/m2
21:58 36.7 °F 35.1 °F 30.3 in WSW 8.1 mph 10 mph 94% 0.03 in 0 W/m2
22:03 36.7 °F 35.1 °F 30.3 in West 6 mph 8 mph 94% 0.03 in 0 W/m2
22:08 36.7 °F 35.1 °F 30.3 in West 6 mph 9 mph 94% 0.02 in 0 W/m2
22:13 36.7 °F 34.9 °F 30.3 in NW 6 mph 9 mph 93% 0.02 in 0 W/m2
22:18 36.7 °F 35.1 °F 30.3 in WSW 8.1 mph 9 mph 94% 0.02 in 0 W/m2
22:23 36.7 °F 34.9 °F 30.3 in West 4 mph 11 mph 93% 0.02 in 0 W/m2
22:28 36.3 °F 34.5 °F 30.3 in West 6 mph 9 mph 93% 0.02 in 0 W/m2
22:33 36.3 °F 34.5 °F 30.3 in West 8.1 mph 11 mph 93% 0.02 in 0 W/m2
22:38 36.5 °F 34.7 °F 30.3 in WNW 6.9 mph 8 mph 93% 0.02 in 0 W/m2
22:43 36.5 °F 34.7 °F 30.3 in WNW 4.9 mph 10 mph 93% 0.02 in 0 W/m2
22:48 36.5 °F 34.7 °F 30.3 in West 6 mph 8 mph 93% 0.02 in 0 W/m2
22:53 36.7 °F 34.9 °F 30.3 in West 6 mph 10 mph 93% 0.02 in 0 W/m2
22:58 36.7 °F 34.9 °F 30.3 in West 6.9 mph 8 mph 93% 0.01 in 0 W/m2
23:03 36.9 °F 35.1 °F 30.3 in West 6 mph 11 mph 93% 0.01 in 0 W/m2
23:08 36.9 °F 34.7 °F 30.3 in West 4 mph 9 mph 92% 0.02 in 0 W/m2
23:13 36.9 °F 34.7 °F 30.3 in WNW 8.9 mph 10 mph 92% 0.02 in 0 W/m2
23:18 37 °F 34.9 °F 30.3 in WSW 4.9 mph 11 mph 92% 0.02 in 0 W/m2
23:23 37 °F 34.9 °F 30.3 in NW 2.9 mph 8 mph 92% 0.01 in 0 W/m2
23:28 36.9 °F 34.7 °F 30.3 in West 2.9 mph 7 mph 92% 0.01 in 0 W/m2
23:33 36.9 °F 34.7 °F 30.3 in WNW 2 mph 7 mph 92% 0.01 in 0 W/m2
23:38 36.7 °F 34.5 °F 30.3 in WNW 2.9 mph 8 mph 92% 0.01 in 0 W/m2
23:43 36.7 °F 34.5 °F 30.3 in WNW 2.9 mph 4 mph 92% 0.01 in 0 W/m2
23:48 36.7 °F 34.5 °F 30.3 in WNW 2.9 mph 5 mph 92% 0.01 in 0 W/m2
23:53 36.5 °F 34.3 °F 30.3 in WNW 2 mph 4 mph 92% 0.01 in 0 W/m2
23:58 36.3 °F 34.2 °F 30.3 in WSW 4 mph 4 mph 92% 0.01 in 0 W/m2
Juneau County Weather
Compliments of Weather Underground - 4 mb